Time,TemperatureF,DewpointF,PressureIn,WindDirection,WindDirectionDegrees,WindSpeedMPH,WindSpeedGustMPH,Humidity,HourlyPrecipIn,Conditions,Clouds,dailyrainin,SoftwareType,DateUTC
2013-06-10 00:00:00,57.2,53.7,30.08,NW,315,0.0,0.0,88,0.00,,CLR,0.00,VWS V14.01,2013-06-10 04:00:00,
2013-06-10 00:10:00,56.9,53.7,30.08,NW,315,0.0,0.0,89,0.00,,CLR,0.00,VWS V14.01,2013-06-10 04:10:00,
2013-06-10 00:20:00,56.7,53.5,30.08,NW,315,0.0,0.0,89,0.00,,CLR,0.00,VWS V14.01,2013-06-10 04:20:00,
2013-06-10 00:30:00,56.5,53.3,30.09,NW,315,0.0,0.0,89,0.00,,CLR,0.00,VWS V14.01,2013-06-10 04:30:00,
2013-06-10 00:40:00,56.2,53.3,30.09,NW,315,0.0,0.0,90,0.00,,CLR,0.00,VWS V14.01,2013-06-10 04:40:00,
2013-06-10 00:50:00,56.2,53.3,30.09,NW,315,0.0,0.0,90,0.00,,CLR,0.00,VWS V14.01,2013-06-10 04:50:00,
2013-06-10 01:00:00,55.7,52.8,30.09,NW,315,0.0,0.0,90,0.00,,CLR,0.00,VWS V14.01,2013-06-10 05:00:00,
2013-06-10 01:10:00,55.6,52.7,30.09,NW,315,0.0,0.0,90,0.00,,CLR,0.00,VWS V14.01,2013-06-10 05:10:00,
2013-06-10 01:20:00,55.3,52.7,30.09,NW,315,0.0,0.0,91,0.00,,CLR,0.00,VWS V14.01,2013-06-10 05:20:00,
2013-06-10 01:30:00,55.1,52.5,30.09,NW,315,0.0,0.0,91,0.00,,CLR,0.00,VWS V14.01,2013-06-10 05:30:00,
2013-06-10 01:40:00,54.8,52.2,30.09,NW,315,0.0,0.0,91,0.00,,CLR,0.00,VWS V14.01,2013-06-10 05:40:00,
2013-06-10 01:50:00,54.7,52.1,30.08,NW,315,0.0,0.0,91,0.00,,CLR,0.00,VWS V14.01,2013-06-10 05:50:00,
2013-06-10 02:00:00,54.4,51.8,30.09,NW,315,0.0,0.0,91,0.00,,CLR,0.00,VWS V14.01,2013-06-10 06:00:00,
2013-06-10 02:10:00,54.2,51.6,30.09,NW,315,0.0,0.0,91,0.00,,CLR,0.00,VWS V14.01,2013-06-10 06:10:00,
2013-06-10 02:20:00,53.9,51.6,30.09,NW,315,0.0,0.0,92,0.00,,CLR,0.00,VWS V14.01,2013-06-10 06:20:00,
2013-06-10 02:30:00,53.9,51.6,30.09,NW,315,0.0,0.0,92,0.00,,CLR,0.00,VWS V14.01,2013-06-10 06:30:00,
2013-06-10 02:40:00,53.8,51.5,30.09,NW,315,0.0,0.0,92,0.00,,CLR,0.00,VWS V14.01,2013-06-10 06:40:00,
2013-06-10 02:50:00,53.6,51.3,30.09,NW,315,0.0,0.0,92,0.00,,CLR,0.00,VWS V14.01,2013-06-10 06:50:00,
2013-06-10 03:00:00,53.5,51.2,30.09,NW,315,0.0,0.0,92,0.00,,CLR,0.00,VWS V14.01,2013-06-10 07:00:00,
2013-06-10 03:10:00,53.3,51.0,30.09,NW,315,0.0,0.0,92,0.00,,CLR,0.00,VWS V14.01,2013-06-10 07:10:00,
2013-06-10 03:20:00,53.2,50.9,30.09,NW,315,0.0,0.0,92,0.00,,CLR,0.00,VWS V14.01,2013-06-10 07:20:00,
2013-06-10 03:30:00,53.1,50.8,30.09,NW,315,0.0,0.0,92,0.00,,CLR,0.00,VWS V14.01,2013-06-10 07:30:00,
2013-06-10 03:40:00,52.9,50.9,30.09,NW,315,0.0,0.0,93,0.00,,CLR,0.00,VWS V14.01,2013-06-10 07:40:00,
2013-06-10 03:50:00,52.9,50.9,30.08,NW,315,0.0,0.0,93,0.00,,CLR,0.00,VWS V14.01,2013-06-10 07:50:00,
2013-06-10 04:00:00,52.8,50.8,30.08,NW,315,0.0,0.0,93,0.00,,CLR,0.00,VWS V14.01,2013-06-10 08:00:00,
2013-06-10 04:10:00,52.6,50.6,30.08,NW,315,0.0,0.0,93,0.00,,CLR,0.00,VWS V14.01,2013-06-10 08:10:00,
2013-06-10 04:20:00,52.5,50.5,30.08,NW,315,0.0,0.0,93,0.00,,CLR,0.00,VWS V14.01,2013-06-10 08:20:00,
2013-06-10 04:30:00,52.3,50.3,30.09,NW,315,0.0,0.0,93,0.00,,CLR,0.00,VWS V14.01,2013-06-10 08:30:00,
2013-06-10 04:40:00,52.2,50.2,30.09,NW,315,0.0,0.0,93,0.00,,CLR,0.00,VWS V14.01,2013-06-10 08:40:00,
2013-06-10 04:50:00,52.2,50.2,30.09,NW,315,0.0,0.0,93,0.00,,CLR,0.00,VWS V14.01,2013-06-10 08:50:00,
2013-06-10 05:00:00,52.0,50.0,30.08,NW,315,0.0,0.0,93,0.00,,CLR,0.00,VWS V14.01,2013-06-10 09:00:00,
2013-06-10 05:10:00,51.7,49.8,30.08,NW,315,0.0,0.0,93,0.00,,CLR,0.00,VWS V14.01,2013-06-10 09:10:00,
2013-06-10 05:20:00,51.7,49.8,30.09,NW,315,0.0,0.0,93,0.00,,CLR,0.00,VWS V14.01,2013-06-10 09:20:00,
2013-06-10 05:30:00,51.6,49.7,30.09,NW,315,0.0,0.0,93,0.00,,CLR,0.00,VWS V14.01,2013-06-10 09:30:00,
2013-06-10 05:40:00,51.4,49.5,30.09,NW,315,0.0,0.0,93,0.00,,CLR,0.00,VWS V14.01,2013-06-10 09:40:00,
2013-06-10 05:50:00,51.4,49.5,30.10,NW,315,0.0,0.0,93,0.00,,CLR,0.00,VWS V14.01,2013-06-10 09:50:00,
2013-06-10 06:00:00,51.4,49.7,30.10,NW,315,0.0,0.0,94,0.00,,CLR,0.00,VWS V14.01,2013-06-10 10:00:00,
2013-06-10 06:10:00,51.7,50.0,30.10,NW,315,0.0,0.0,94,0.00,,CLR,0.00,VWS V14.01,2013-06-10 10:10:00,
2013-06-10 06:20:00,52.0,50.3,30.10,NW,315,0.0,0.0,94,0.00,,CLR,0.00,VWS V14.01,2013-06-10 10:20:00,
2013-06-10 06:30:00,52.2,50.5,30.10,NW,315,0.0,0.0,94,0.00,,CLR,0.00,VWS V14.01,2013-06-10 10:30:00,
2013-06-10 06:40:00,52.9,51.5,30.10,NW,315,0.0,0.0,95,0.00,,CLR,0.00,VWS V14.01,2013-06-10 10:40:00,
2013-06-10 06:50:00,53.1,51.7,30.10,NW,315,0.0,0.0,95,0.00,,CLR,0.00,VWS V14.01,2013-06-10 10:50:00,
2013-06-10 07:00:00,54.1,52.7,30.10,NW,315,0.0,0.0,95,0.00,,CLR,0.00,VWS V14.01,2013-06-10 11:00:00,
2013-06-10 07:10:00,54.4,53.0,30.10,NW,315,0.0,0.0,95,0.00,,CLR,0.00,VWS V14.01,2013-06-10 11:10:00,
2013-06-10 07:20:00,54.8,53.4,30.10,NW,315,0.0,0.0,95,0.00,,CLR,0.00,VWS V14.01,2013-06-10 11:20:00,
2013-06-10 07:30:00,55.1,53.7,30.10,NW,315,0.0,0.0,95,0.00,,CLR,0.00,VWS V14.01,2013-06-10 11:30:00,
2013-06-10 07:40:00,56.0,54.6,30.10,NW,315,0.0,0.0,95,0.00,,CLR,0.00,VWS V14.01,2013-06-10 11:40:00,
2013-06-10 07:50:00,56.9,55.8,30.09,NW,315,0.0,0.0,96,0.00,,CLR,0.00,VWS V14.01,2013-06-10 11:50:00,
2013-06-10 08:00:00,57.6,56.5,30.09,NW,315,0.0,0.0,96,0.00,,CLR,0.00,VWS V14.01,2013-06-10 12:00:00,
2013-06-10 08:10:00,58.0,56.9,30.09,NW,315,0.0,0.0,96,0.00,,CLR,0.00,VWS V14.01,2013-06-10 12:10:00,
2013-06-10 08:20:00,58.4,57.3,30.09,NW,315,0.0,0.0,96,0.00,,CLR,0.00,VWS V14.01,2013-06-10 12:20:00,
2013-06-10 08:30:00,59.5,58.7,30.09,NW,315,0.0,0.0,97,0.00,,CLR,0.00,VWS V14.01,2013-06-10 12:30:00,
2013-06-10 08:40:00,60.2,59.1,30.09,NW,315,0.0,0.0,96,0.00,,CLR,0.00,VWS V14.01,2013-06-10 12:40:00,
2013-06-10 08:50:00,62.3,61.4,30.08,NW,315,0.0,0.0,97,0.00,,CLR,0.00,VWS V14.01,2013-06-10 12:50:00,
2013-06-10 09:00:00,63.1,62.2,30.08,NW,315,0.0,0.0,97,0.00,,CLR,0.00,VWS V14.01,2013-06-10 13:00:00,
2013-06-10 09:10:00,63.9,62.4,30.08,NW,315,0.0,0.0,95,0.00,,CLR,0.00,VWS V14.01,2013-06-10 13:10:00,
2013-06-10 09:20:00,64.7,63.2,30.08,NW,315,0.0,0.0,95,0.00,,CLR,0.00,VWS V14.01,2013-06-10 13:20:00,
2013-06-10 09:30:00,64.8,62.7,30.08,NW,315,0.0,0.0,93,0.00,,CLR,0.00,VWS V14.01,2013-06-10 13:30:00,
2013-06-10 09:40:00,65.0,62.6,30.08,NW,315,0.0,0.0,92,0.00,,CLR,0.00,VWS V14.01,2013-06-10 13:40:00,
2013-06-10 09:50:00,65.6,62.3,30.08,NW,315,0.0,0.0,89,0.00,,CLR,0.00,VWS V14.01,2013-06-10 13:50:00,
2013-06-10 10:00:00,66.6,62.9,30.08,NW,315,0.0,0.0,88,0.00,,CLR,0.00,VWS V14.01,2013-06-10 14:00:00,
2013-06-10 10:10:00,67.1,63.1,30.08,NW,315,0.0,0.0,87,0.00,,CLR,0.00,VWS V14.01,2013-06-10 14:10:00,
2013-06-10 10:20:00,66.8,62.2,30.08,South,180,0.0,2.0,85,0.00,,CLR,0.00,VWS V14.01,2013-06-10 14:20:00,
2013-06-10 10:30:00,67.3,62.6,30.08,South,180,0.0,0.0,85,0.00,,CLR,0.00,VWS V14.01,2013-06-10 14:30:00,
2013-06-10 10:40:00,68.1,63.4,30.08,SE,135,0.0,1.0,85,0.00,,CLR,0.00,VWS V14.01,2013-06-10 14:40:00,
2013-06-10 10:50:00,68.4,62.0,30.07,SE,135,0.0,0.0,80,0.00,,CLR,0.00,VWS V14.01,2013-06-10 14:50:00,
2013-06-10 11:00:00,68.4,62.0,30.07,SE,135,0.0,0.0,80,0.00,,CLR,0.00,VWS V14.01,2013-06-10 15:00:00,
2013-06-10 11:10:00,68.8,62.7,30.07,SE,135,0.0,0.0,81,0.00,,CLR,0.00,VWS V14.01,2013-06-10 15:10:00,
2013-06-10 11:20:00,68.8,62.7,30.07,SE,135,0.0,0.0,81,0.00,,CLR,0.00,VWS V14.01,2013-06-10 15:20:00,
2013-06-10 11:30:00,68.8,62.7,30.07,SE,135,0.0,0.0,81,0.00,,CLR,0.00,VWS V14.01,2013-06-10 15:30:00,
2013-06-10 11:40:00,68.8,62.0,30.07,SE,135,0.0,0.0,79,0.00,,CLR,0.00,VWS V14.01,2013-06-10 15:40:00,
2013-06-10 11:50:00,68.6,61.8,30.08,SE,135,0.0,0.0,79,0.00,,CLR,0.00,VWS V14.01,2013-06-10 15:50:00,
2013-06-10 12:00:00,68.3,61.5,30.08,ESE,112,0.0,1.0,79,0.00,,CLR,0.00,VWS V14.01,2013-06-10 16:00:00,
2013-06-10 12:10:00,68.3,61.5,30.08,ESE,112,0.0,0.0,79,0.00,,CLR,0.00,VWS V14.01,2013-06-10 16:10:00,
2013-06-10 12:20:00,68.1,62.4,30.08,ESE,112,0.0,0.0,82,0.01,,CLR,0.01,VWS V14.01,2013-06-10 16:20:00,
2013-06-10 12:30:00,68.1,63.1,30.08,ESE,112,0.0,0.0,84,0.01,,CLR,0.01,VWS V14.01,2013-06-10 16:30:00,
2013-06-10 12:40:00,68.1,63.1,30.08,ESE,112,0.0,1.0,84,0.01,,CLR,0.01,VWS V14.01,2013-06-10 16:40:00,
2013-06-10 12:50:00,68.1,63.1,30.07,ESE,112,0.0,0.0,84,0.01,,CLR,0.01,VWS V14.01,2013-06-10 16:50:00,
2013-06-10 13:00:00,68.1,63.1,30.07,ESE,112,0.0,0.0,84,0.01,,CLR,0.01,VWS V14.01,2013-06-10 17:00:00,
2013-06-10 13:10:00,67.8,62.8,30.07,SE,135,0.0,3.0,84,0.01,,CLR,0.01,VWS V14.01,2013-06-10 17:10:00,
2013-06-10 13:20:00,67.4,62.4,30.06,ENE,68,0.0,2.0,84,0.01,,CLR,0.01,VWS V14.01,2013-06-10 17:20:00,
2013-06-10 13:30:00,67.1,62.1,30.06,ENE,68,0.0,4.0,84,0.01,,CLR,0.02,VWS V14.01,2013-06-10 17:30:00,
2013-06-10 13:40:00,67.1,62.1,30.06,ENE,68,0.0,1.0,84,0.01,,CLR,0.02,VWS V14.01,2013-06-10 17:40:00,
2013-06-10 13:50:00,66.9,61.9,30.06,ENE,68,0.0,0.0,84,0.01,,CLR,0.02,VWS V14.01,2013-06-10 17:50:00,
2013-06-10 14:00:00,66.9,61.9,30.06,North,0,0.0,2.0,84,0.02,,CLR,0.03,VWS V14.01,2013-06-10 18:00:00,
2013-06-10 14:10:00,67.1,62.1,30.06,East,90,1.0,7.0,84,0.02,,CLR,0.03,VWS V14.01,2013-06-10 18:10:00,
2013-06-10 14:20:00,66.9,61.9,30.05,East,90,2.0,12.0,84,0.02,,CLR,0.03,VWS V14.01,2013-06-10 18:20:00,
2013-06-10 14:30:00,66.4,61.4,30.05,East,90,1.0,4.0,84,0.02,,CLR,0.03,VWS V14.01,2013-06-10 18:30:00,
2013-06-10 14:40:00,66.4,61.4,30.05,ENE,68,0.0,2.0,84,0.01,,CLR,0.03,VWS V14.01,2013-06-10 18:40:00,
2013-06-10 14:50:00,66.3,61.3,30.04,ENE,68,0.0,0.0,84,0.01,,CLR,0.03,VWS V14.01,2013-06-10 18:50:00,
2013-06-10 15:00:00,66.4,61.4,30.04,ENE,68,0.0,0.0,84,0.01,,CLR,0.03,VWS V14.01,2013-06-10 19:00:00,
2013-06-10 15:10:00,66.1,61.1,30.04,NW,315,0.0,3.0,84,0.00,,CLR,0.03,VWS V14.01,2013-06-10 19:10:00,
2013-06-10 15:20:00,66.1,62.1,30.03,WNW,292,0.0,1.0,87,0.00,,CLR,0.03,VWS V14.01,2013-06-10 19:20:00,
2013-06-10 15:30:00,66.1,62.1,30.02,WNW,292,0.0,1.0,87,0.00,,CLR,0.03,VWS V14.01,2013-06-10 19:30:00,
2013-06-10 15:40:00,66.1,62.1,30.02,WNW,292,0.0,0.0,87,0.00,,CLR,0.03,VWS V14.01,2013-06-10 19:40:00,
2013-06-10 15:50:00,66.1,62.1,30.01,WNW,292,0.0,1.0,87,0.00,,CLR,0.03,VWS V14.01,2013-06-10 19:50:00,
2013-06-10 16:00:00,66.1,62.1,30.01,ESE,112,0.0,2.0,87,0.00,,CLR,0.03,VWS V14.01,2013-06-10 20:00:00,
2013-06-10 16:10:00,66.1,62.1,30.01,ENE,68,1.0,3.0,87,0.00,,CLR,0.03,VWS V14.01,2013-06-10 20:10:00,
2013-06-10 16:20:00,65.8,61.8,30.00,ENE,68,0.0,6.0,87,0.00,,CLR,0.03,VWS V14.01,2013-06-10 20:20:00,
2013-06-10 16:30:00,65.8,61.8,30.01,ENE,68,0.0,0.0,87,0.00,,CLR,0.03,VWS V14.01,2013-06-10 20:30:00,
2013-06-10 16:40:00,66.0,62.0,30.01,ENE,68,0.0,0.0,87,0.00,,CLR,0.03,VWS V14.01,2013-06-10 20:40:00,
2013-06-10 16:50:00,66.0,62.7,30.00,ENE,68,0.0,0.0,89,0.02,,CLR,0.05,VWS V14.01,2013-06-10 20:50:00,
2013-06-10 17:00:00,65.8,62.5,30.00,ENE,68,0.0,0.0,89,0.03,,CLR,0.06,VWS V14.01,2013-06-10 21:00:00,
2013-06-10 17:10:00,65.8,62.5,30.00,East,90,1.0,5.0,89,0.03,,CLR,0.06,VWS V14.01,2013-06-10 21:10:00,
2013-06-10 17:20:00,65.6,62.6,29.99,East,90,0.0,2.0,90,0.04,,CLR,0.07,VWS V14.01,2013-06-10 21:20:00,
2013-06-10 17:30:00,65.5,62.5,29.98,East,90,0.0,0.0,90,0.04,,CLR,0.07,VWS V14.01,2013-06-10 21:30:00,
2013-06-10 17:40:00,65.3,62.3,29.98,East,90,0.0,0.0,90,0.05,,CLR,0.08,VWS V14.01,2013-06-10 21:40:00,
2013-06-10 17:50:00,65.3,62.6,29.98,East,90,0.0,2.0,91,0.06,,CLR,0.09,VWS V14.01,2013-06-10 21:50:00,
2013-06-10 18:00:00,65.2,62.5,29.97,East,90,0.0,0.0,91,0.06,,CLR,0.11,VWS V14.01,2013-06-10 22:00:00,
2013-06-10 18:10:00,65.0,62.3,29.97,East,90,0.0,2.0,91,0.06,,CLR,0.12,VWS V14.01,2013-06-10 22:10:00,
2013-06-10 18:20:00,65.0,62.3,29.97,East,90,1.0,3.0,91,0.08,,CLR,0.14,VWS V14.01,2013-06-10 22:20:00,
2013-06-10 18:30:00,64.7,62.0,29.97,East,90,0.0,0.0,91,0.09,,CLR,0.16,VWS V14.01,2013-06-10 22:30:00,
2013-06-10 18:40:00,64.7,62.3,29.97,East,90,0.0,0.0,92,0.11,,CLR,0.18,VWS V14.01,2013-06-10 22:40:00,
2013-06-10 18:50:00,64.7,62.3,29.96,ENE,68,0.0,5.0,92,0.12,,CLR,0.20,VWS V14.01,2013-06-10 22:50:00,
2013-06-10 19:00:00,64.3,61.9,29.96,ENE,68,0.0,0.0,92,0.12,,CLR,0.21,VWS V14.01,2013-06-10 23:00:00,
2013-06-10 19:10:00,64.3,61.9,29.96,ENE,68,0.0,1.0,92,0.12,,CLR,0.23,VWS V14.01,2013-06-10 23:10:00,
2013-06-10 19:20:00,64.2,62.1,29.95,ENE,68,0.0,0.0,93,0.12,,CLR,0.24,VWS V14.01,2013-06-10 23:20:00,
2013-06-10 19:30:00,64.2,62.1,29.95,East,90,0.0,2.0,93,0.11,,CLR,0.25,VWS V14.01,2013-06-10 23:30:00,
2013-06-10 19:40:00,64.2,62.1,29.95,East,90,0.0,0.0,93,0.09,,CLR,0.25,VWS V14.01,2013-06-10 23:40:00,
2013-06-10 19:50:00,63.5,61.4,29.94,ENE,68,1.0,5.0,93,0.08,,CLR,0.26,VWS V14.01,2013-06-10 23:50:00,
2013-06-10 20:00:00,63.4,61.3,29.93,East,90,1.0,3.0,93,0.06,,CLR,0.26,VWS V14.01,2013-06-11 00:00:00,
2013-06-10 20:10:00,63.2,61.2,29.93,East,90,0.0,0.0,93,0.09,,CLR,0.30,VWS V14.01,2013-06-11 00:10:00,
2013-06-10 20:20:00,63.1,61.0,29.92,East,90,0.0,2.0,93,0.07,,CLR,0.30,VWS V14.01,2013-06-11 00:20:00,
2013-06-10 20:30:00,62.9,60.8,29.91,ESE,112,0.0,4.0,93,0.06,,CLR,0.30,VWS V14.01,2013-06-11 00:30:00,
2013-06-10 20:40:00,62.7,60.7,29.91,ENE,68,1.0,7.0,93,0.11,,CLR,0.36,VWS V14.01,2013-06-11 00:40:00,
2013-06-10 20:50:00,62.6,60.5,29.90,East,90,1.0,5.0,93,0.12,,CLR,0.37,VWS V14.01,2013-06-11 00:50:00,
2013-06-10 21:00:00,62.4,60.3,29.90,East,90,1.0,3.0,93,0.11,,CLR,0.37,VWS V14.01,2013-06-11 01:00:00,
2013-06-10 21:10:00,62.3,60.2,29.90,East,90,1.0,7.0,93,0.12,,CLR,0.38,VWS V14.01,2013-06-11 01:10:00,
2013-06-10 21:20:00,62.3,60.2,29.90,NE,45,0.0,3.0,93,0.08,,CLR,0.38,VWS V14.01,2013-06-11 01:20:00,
2013-06-10 21:30:00,62.3,60.6,29.89,ENE,68,1.0,5.0,94,0.10,,CLR,0.40,VWS V14.01,2013-06-11 01:30:00,
2013-06-10 21:40:00,62.0,60.3,29.89,East,90,2.0,6.0,94,0.13,,CLR,0.43,VWS V14.01,2013-06-11 01:40:00,
2013-06-10 21:50:00,61.8,60.1,29.89,ENE,68,0.0,2.0,94,0.07,,CLR,0.43,VWS V14.01,2013-06-11 01:50:00,
2013-06-10 22:00:00,61.6,59.9,29.89,SSE,158,0.0,1.0,94,0.07,,CLR,0.44,VWS V14.01,2013-06-11 02:00:00,
2013-06-10 22:10:00,61.6,59.9,29.89,SSE,158,0.0,0.0,94,0.10,,CLR,0.47,VWS V14.01,2013-06-11 02:10:00,
2013-06-10 22:20:00,61.3,59.6,29.90,NE,45,0.0,1.0,94,0.12,,CLR,0.50,VWS V14.01,2013-06-11 02:20:00,
2013-06-10 22:30:00,61.3,59.6,29.90,ENE,68,0.0,1.0,94,0.13,,CLR,0.51,VWS V14.01,2013-06-11 02:30:00,
2013-06-10 22:40:00,61.2,59.5,29.90,ENE,68,0.0,3.0,94,0.11,,CLR,0.51,VWS V14.01,2013-06-11 02:40:00,
2013-06-10 22:50:00,61.0,59.3,29.89,NE,45,1.0,5.0,94,0.09,,CLR,0.52,VWS V14.01,2013-06-11 02:50:00,
2013-06-10 23:00:00,60.7,59.0,29.88,ENE,68,0.0,2.0,94,0.09,,CLR,0.52,VWS V14.01,2013-06-11 03:00:00,
2013-06-10 23:10:00,60.5,58.8,29.88,ENE,68,2.0,6.0,94,0.08,,CLR,0.52,VWS V14.01,2013-06-11 03:10:00,
2013-06-10 23:20:00,60.5,58.8,29.88,ENE,68,0.0,3.0,94,0.05,,CLR,0.52,VWS V14.01,2013-06-11 03:20:00,
2013-06-10 23:30:00,60.4,58.7,29.87,ENE,68,0.0,3.0,94,0.03,,CLR,0.53,VWS V14.01,2013-06-11 03:30:00,
2013-06-10 23:40:00,60.2,58.5,29.87,East,90,0.0,3.0,94,0.04,,CLR,0.55,VWS V14.01,2013-06-11 03:40:00,
2013-06-10 23:50:00,60.1,58.4,29.86,NE,45,0.0,3.0,94,0.04,,CLR,0.55,VWS V14.01,2013-06-11 03:50:00,